createdAt,value
2023-01-22T00:01:03.000Z,102715.25
2023-01-22T00:03:30.755Z,102739.31
2023-01-22T00:05:58.545Z,102720.41
2023-01-22T00:08:26.831Z,102714.63
2023-01-22T00:10:56.072Z,102716.13
2023-01-22T00:13:25.422Z,102715.50
2023-01-22T00:15:55.282Z,102693.69
2023-01-22T00:18:23.073Z,102699.63
2023-01-22T00:20:52.225Z,102697.78
2023-01-22T00:23:20.352Z,102683.44
2023-01-22T00:25:48.124Z,102677.03
2023-01-22T00:28:16.910Z,102673.50
2023-01-22T00:30:44.901Z,102685.47
2023-01-22T00:33:13.977Z,102666.72
2023-01-22T00:35:41.668Z,102680.97
2023-01-22T00:38:09.357Z,102658.72
2023-01-22T00:40:37.232Z,102674.47
2023-01-22T00:43:04.942Z,102720.47
2023-01-22T00:45:34.090Z,102700.41
2023-01-22T00:48:01.914Z,102710.16
2023-01-22T00:50:30.988Z,102704.81
2023-01-22T00:52:58.692Z,102720.28
2023-01-22T00:55:26.770Z,102715.38
2023-01-22T00:57:54.500Z,102731.47
2023-01-22T01:00:22.602Z,102734.88
2023-01-22T01:03:08.177Z,102739.19
2023-01-22T01:05:37.290Z,102718.97
2023-01-22T01:08:05.663Z,102735.28
2023-01-22T01:10:33.388Z,102741.50
2023-01-22T01:13:01.085Z,102712.63
2023-01-22T01:15:28.821Z,102730.16
2023-01-22T01:17:56.516Z,102733.63
2023-01-22T01:20:24.253Z,102734.00
2023-01-22T01:22:53.297Z,102728.59
2023-01-22T01:25:21.013Z,102724.47
2023-01-22T01:27:48.714Z,102712.06
2023-01-22T01:30:18.081Z,102736.06
2023-01-22T01:32:45.959Z,102730.72
2023-01-22T01:35:13.672Z,102735.34
2023-01-22T01:37:41.359Z,102733.78
2023-01-22T01:40:12.158Z,102718.34
2023-01-22T01:42:40.940Z,102744.44
2023-01-22T01:45:23.619Z,102745.00
2023-01-22T01:47:56.092Z,102728.63
2023-01-22T01:50:25.914Z,102745.09
2023-01-22T01:52:53.880Z,102737.69
2023-01-22T01:55:29.356Z,102743.00
2023-01-22T01:58:01.612Z,102729.22
2023-01-22T02:00:36.281Z,102748.41
2023-01-22T02:03:04.882Z,102776.75
2023-01-22T02:05:37.644Z,102765.69
2023-01-22T02:08:06.736Z,102758.69
2023-01-22T02:10:36.286Z,102761.94
2023-01-22T02:13:08.756Z,102747.16
2023-01-22T02:15:38.726Z,102754.50
2023-01-22T02:18:06.530Z,102745.19
2023-01-22T02:20:36.952Z,102770.47
2023-01-22T02:23:05.934Z,102773.59
2023-01-22T02:25:34.927Z,102781.53
2023-01-22T02:28:02.696Z,102759.63
2023-01-22T02:30:30.464Z,102791.22
2023-01-22T02:32:58.247Z,102787.44
2023-01-22T02:35:25.985Z,102768.56
2023-01-22T02:37:55.096Z,102795.75
2023-01-22T02:40:23.037Z,102784.34
2023-01-22T02:42:50.837Z,102754.78
2023-01-22T02:45:18.690Z,102785.91
2023-01-22T02:47:46.408Z,102765.88
2023-01-22T02:50:14.452Z,102778.56
2023-01-22T02:52:42.196Z,102761.81
2023-01-22T02:55:11.425Z,102758.47
2023-01-22T02:57:39.160Z,102759.38
2023-01-22T03:00:08.287Z,102760.59
2023-01-22T03:02:36.001Z,102727.66
2023-01-22T03:05:04.308Z,102742.31
2023-01-22T03:07:42.308Z,102756.47
2023-01-22T03:10:18.373Z,102765.81
2023-01-22T03:13:05.248Z,102763.41
2023-01-22T03:15:50.680Z,102754.94
2023-01-22T03:18:36.037Z,102739.09
2023-01-22T03:21:20.229Z,102752.88
2023-01-22T03:23:49.599Z,102759.34
2023-01-22T03:26:19.517Z,102769.09
2023-01-22T03:28:47.251Z,102761.09
2023-01-22T03:31:16.209Z,102750.72
2023-01-22T03:33:44.499Z,102751.34
2023-01-22T03:36:14.345Z,102717.19
2023-01-22T03:38:42.135Z,102704.06
2023-01-22T03:41:13.383Z,102702.47
2023-01-22T03:43:42.694Z,102718.69
2023-01-22T03:46:13.353Z,102732.84
2023-01-22T03:48:41.694Z,102745.41
2023-01-22T03:51:11.621Z,102762.00
2023-01-22T03:53:39.957Z,102778.34
2023-01-22T03:56:11.542Z,102769.81
2023-01-22T03:58:39.634Z,102766.88
2023-01-22T04:01:10.203Z,102771.56
2023-01-22T04:03:38.421Z,102784.63
2023-01-22T04:06:07.175Z,102790.69
2023-01-22T04:08:36.620Z,102778.31
2023-01-22T04:11:05.048Z,102793.56
2023-01-22T04:13:34.076Z,102779.88
2023-01-22T04:16:02.408Z,102795.16
2023-01-22T04:18:31.686Z,102777.50
2023-01-22T04:20:59.616Z,102787.28
2023-01-22T04:23:27.690Z,102802.53
2023-01-22T04:25:55.690Z,102800.47
2023-01-22T04:28:23.504Z,102813.75
2023-01-22T04:30:54.632Z,102809.53
2023-01-22T04:33:22.455Z,102813.97
2023-01-22T04:35:53.016Z,102819.19
2023-01-22T04:38:21.040Z,102816.94
2023-01-22T04:40:48.950Z,102800.81
2023-01-22T04:43:16.691Z,102827.72
2023-01-22T04:45:44.566Z,102815.97
2023-01-22T04:48:12.769Z,102840.34
2023-01-22T04:50:40.732Z,102837.44
2023-01-22T04:53:11.103Z,102822.00
2023-01-22T04:55:38.850Z,102810.44
2023-01-22T04:58:06.577Z,102815.56
2023-01-22T05:00:34.932Z,102810.66
2023-01-22T05:03:03.978Z,102843.50
2023-01-22T05:05:32.742Z,102854.03
2023-01-22T05:08:01.309Z,102862.53
2023-01-22T05:10:30.443Z,102870.34
2023-01-22T05:12:58.292Z,102861.22
2023-01-22T05:15:26.079Z,102870.44
2023-01-22T05:17:54.340Z,102857.09
2023-01-22T05:20:22.395Z,102873.59
2023-01-22T05:22:50.448Z,102881.59
2023-01-22T05:25:18.500Z,102877.56
2023-01-22T05:27:47.620Z,102886.47
2023-01-22T05:30:16.030Z,102910.19
2023-01-22T05:32:43.896Z,102901.25
2023-01-22T05:35:12.358Z,102923.66
2023-01-22T05:37:40.087Z,102893.53
2023-01-22T05:40:09.459Z,102899.31
2023-01-22T05:42:37.206Z,102910.72
2023-01-22T05:45:07.637Z,102902.00
2023-01-22T05:47:35.398Z,102907.00
2023-01-22T05:50:03.196Z,102906.44
2023-01-22T05:52:30.916Z,102907.63
2023-01-22T05:54:59.937Z,102900.97
2023-01-22T05:57:29.724Z,102903.84
2023-01-22T05:59:57.474Z,102931.91
2023-01-22T06:02:26.627Z,102947.31
2023-01-22T06:04:54.356Z,102930.63
2023-01-22T06:07:22.527Z,102921.84
2023-01-22T06:09:50.242Z,102923.75
2023-01-22T06:12:18.517Z,102918.97
2023-01-22T06:14:46.261Z,102919.19
2023-01-22T06:17:14.022Z,102929.38
2023-01-22T06:19:43.179Z,102947.53
2023-01-22T06:22:10.980Z,102939.22
2023-01-22T06:24:39.084Z,102961.78
2023-01-22T06:27:06.793Z,102963.19
2023-01-22T06:29:34.493Z,102943.16
2023-01-22T06:32:02.234Z,102937.06
2023-01-22T06:34:29.964Z,102950.31
2023-01-22T06:36:59.023Z,102949.56
2023-01-22T06:39:26.742Z,102936.50
2023-01-22T06:41:54.464Z,102945.97
2023-01-22T06:44:22.253Z,102965.34
2023-01-22T06:46:50.058Z,102985.31
2023-01-22T06:49:17.860Z,102983.66
2023-01-22T06:51:45.595Z,102976.56
2023-01-22T06:54:14.983Z,102987.50
2023-01-22T06:56:42.720Z,102992.09
2023-01-22T06:59:10.506Z,102976.47
2023-01-22T07:01:38.257Z,102973.56
2023-01-22T07:04:06.175Z,102976.13
2023-01-22T07:06:33.890Z,102991.94
2023-01-22T07:09:01.633Z,102984.25
2023-01-22T07:11:30.682Z,102982.69
2023-01-22T07:13:58.417Z,102986.41
2023-01-22T07:16:26.605Z,102990.75
2023-01-22T07:18:54.378Z,102997.50
2023-01-22T07:21:22.167Z,102972.13
2023-01-22T07:23:49.865Z,102969.06
2023-01-22T07:26:17.825Z,102972.00
2023-01-22T07:28:46.998Z,102973.66
2023-01-22T07:31:14.915Z,102978.09
2023-01-22T07:33:43.097Z,102963.00
2023-01-22T07:36:10.918Z,102964.97
2023-01-22T07:38:38.649Z,102975.38
2023-01-22T07:41:20.269Z,102977.91
2023-01-22T07:43:53.645Z,102981.94
2023-01-22T07:46:21.875Z,102989.63
2023-01-22T07:48:49.663Z,103000.59
2023-01-22T07:51:17.588Z,103003.00
2023-01-22T07:53:45.555Z,103004.75
2023-01-22T07:56:13.339Z,103003.75
2023-01-22T07:58:41.232Z,102998.81
2023-01-22T08:01:11.163Z,102998.53
2023-01-22T08:03:39.018Z,102986.88
2023-01-22T08:06:10.341Z,102991.97
2023-01-22T08:08:38.850Z,103012.28
2023-01-22T08:11:06.614Z,103018.25
2023-01-22T08:13:34.342Z,102995.09
2023-01-22T08:16:02.172Z,103003.84
2023-01-22T08:18:31.360Z,102994.28
2023-01-22T08:21:00.920Z,102996.78
2023-01-22T08:23:28.742Z,103018.03
2023-01-22T08:25:59.354Z,103020.44
2023-01-22T08:28:27.249Z,103033.00
2023-01-22T08:30:58.654Z,103044.34
2023-01-22T08:33:27.139Z,103026.56
2023-01-22T08:35:56.268Z,103047.25
2023-01-22T08:38:24.001Z,103037.84
2023-01-22T08:40:52.261Z,103029.19
2023-01-22T08:43:20.362Z,103044.38
2023-01-22T08:45:49.737Z,103022.88
2023-01-22T08:48:17.717Z,103026.41
2023-01-22T08:50:45.387Z,103036.16
2023-01-22T08:53:14.430Z,103047.38
2023-01-22T08:55:42.090Z,103054.38
2023-01-22T08:58:10.466Z,103057.03
2023-01-22T09:00:38.108Z,103043.13
2023-01-22T09:03:05.788Z,103039.06
2023-01-22T09:05:33.476Z,103032.59
2023-01-22T09:08:01.189Z,103035.84
2023-01-22T09:10:30.240Z,103053.59
2023-01-22T09:13:00.146Z,103048.72
2023-01-22T09:15:28.347Z,103068.66
2023-01-22T09:17:56.124Z,103067.94
2023-01-22T09:20:24.041Z,103074.84
2023-01-22T09:22:51.749Z,103100.19
2023-01-22T09:25:20.406Z,103091.66
2023-01-22T09:27:49.525Z,103096.78
2023-01-22T09:30:18.015Z,103090.41
2023-01-22T09:32:45.839Z,103100.66
2023-01-22T09:35:15.575Z,103106.88
2023-01-22T09:37:44.223Z,103114.66
2023-01-22T09:40:22.374Z,103100.63
2023-01-22T09:42:52.468Z,103112.97
2023-01-22T09:45:25.263Z,103105.78
2023-01-22T09:47:55.663Z,103116.47
2023-01-22T09:50:26.319Z,103120.59
2023-01-22T09:52:57.929Z,103118.63
2023-01-22T09:55:30.761Z,103135.19
2023-01-22T09:58:05.623Z,103120.69
2023-01-22T10:00:42.008Z,103124.97
2023-01-22T10:03:18.403Z,103130.84
2023-01-22T10:05:50.558Z,103130.66
2023-01-22T10:08:21.379Z,103133.53
2023-01-22T10:10:50.900Z,103125.66
2023-01-22T10:13:22.295Z,103102.38
2023-01-22T10:15:54.707Z,103131.00
2023-01-22T10:18:32.553Z,103122.53
2023-01-22T10:21:04.495Z,103138.06
2023-01-22T10:23:33.868Z,103131.16
2023-01-22T10:26:14.189Z,103144.31
2023-01-22T10:28:48.281Z,103136.19
2023-01-22T10:31:24.171Z,103158.13
2023-01-22T10:33:57.287Z,103171.47
2023-01-22T10:36:25.061Z,103149.19
2023-01-22T10:39:04.587Z,103169.44
2023-01-22T10:41:32.854Z,103186.69
2023-01-22T10:44:20.503Z,103178.59
2023-01-22T10:46:49.795Z,103174.63
2023-01-22T10:49:20.672Z,103196.00
2023-01-22T10:51:54.440Z,103169.06
2023-01-22T10:54:28.293Z,103185.34
2023-01-22T10:57:06.173Z,103179.19
2023-01-22T10:59:35.742Z,103166.06
2023-01-22T11:02:12.354Z,103163.44
2023-01-22T11:04:40.152Z,103152.31
2023-01-22T11:07:12.619Z,103151.41
2023-01-22T11:09:44.550Z,103157.41
2023-01-22T11:12:17.568Z,103170.22
2023-01-22T11:14:51.698Z,103154.25
2023-01-22T11:17:26.796Z,103172.00
2023-01-22T11:20:01.704Z,103163.94
2023-01-22T11:22:34.746Z,103160.31
2023-01-22T11:25:03.765Z,103160.47
2023-01-22T11:27:59.702Z,103176.66
2023-01-22T11:30:44.045Z,103175.31
2023-01-22T11:33:23.253Z,103180.13
2023-01-22T11:35:58.576Z,103170.72
2023-01-22T11:38:34.311Z,103170.59
2023-01-22T11:41:32.112Z,103170.00
2023-01-22T11:44:20.413Z,103165.09
2023-01-22T11:47:06.036Z,103164.56
2023-01-22T11:49:42.126Z,103145.34
2023-01-22T11:52:20.919Z,103160.56
2023-01-22T11:55:06.001Z,103141.13
2023-01-22T11:57:38.048Z,103140.06
2023-01-22T12:00:28.125Z,103120.25
2023-01-22T12:03:28.381Z,103134.22
2023-01-22T12:06:12.849Z,103129.31
2023-01-22T12:08:51.224Z,103130.66
2023-01-22T12:11:35.454Z,103117.44
2023-01-22T12:14:21.753Z,103119.75
2023-01-22T12:16:58.901Z,103130.97
2023-01-22T12:19:44.957Z,103127.25
2023-01-22T12:22:28.333Z,103115.19
2023-01-22T12:25:02.196Z,103132.75
2023-01-22T12:27:35.786Z,103130.31
2023-01-22T12:30:14.976Z,103121.00
2023-01-22T12:32:46.303Z,103105.44
2023-01-22T12:35:18.449Z,103104.91
2023-01-22T12:37:50.006Z,103108.41
2023-01-22T12:40:31.991Z,103108.78
2023-01-22T12:43:02.404Z,103098.75
2023-01-22T12:45:42.083Z,103102.41
2023-01-22T12:48:25.369Z,103104.75
2023-01-22T12:50:56.359Z,103098.63
2023-01-22T12:53:29.189Z,103088.13
2023-01-22T12:56:02.833Z,103100.25
2023-01-22T12:58:33.139Z,103103.06
2023-01-22T13:01:03.956Z,103082.28
2023-01-22T13:03:33.235Z,103066.16
2023-01-22T13:06:04.567Z,103057.19
2023-01-22T13:08:40.840Z,103055.75
2023-01-22T13:11:10.870Z,103041.22
2023-01-22T13:13:50.174Z,103043.31
2023-01-22T13:16:21.598Z,103041.72
2023-01-22T13:18:51.900Z,103043.84
2023-01-22T13:21:27.081Z,103060.19
2023-01-22T13:24:00.000Z,103054.94
2023-01-22T13:26:30.570Z,103047.19
2023-01-22T13:29:01.042Z,103011.72
2023-01-22T13:31:29.112Z,103018.38
2023-01-22T13:33:58.951Z,103031.94
2023-01-22T13:36:29.096Z,103041.28
2023-01-22T13:38:58.870Z,103035.97
2023-01-22T13:41:30.202Z,103053.69
2023-01-22T13:43:58.398Z,103041.72
2023-01-22T13:46:28.648Z,103041.97
2023-01-22T13:49:05.273Z,103051.00
2023-01-22T13:51:36.135Z,103057.97
2023-01-22T13:54:06.063Z,103047.00
2023-01-22T13:56:34.133Z,103048.75
2023-01-22T13:59:18.302Z,103050.31
2023-01-22T14:01:46.694Z,103034.72
2023-01-22T14:04:30.711Z,103022.50
2023-01-22T14:06:59.936Z,103035.50
2023-01-22T14:09:30.026Z,102999.50
2023-01-22T14:11:58.223Z,102991.56
2023-01-22T14:14:27.100Z,102967.69
2023-01-22T14:16:54.792Z,102952.94
2023-01-22T14:19:22.578Z,102911.69
2023-01-22T14:21:50.290Z,102908.56
2023-01-22T14:24:19.379Z,102921.19
2023-01-22T14:26:47.105Z,102935.03
2023-01-22T14:29:14.925Z,102912.81
2023-01-22T14:31:42.698Z,102891.88
2023-01-22T14:34:12.482Z,102894.78
2023-01-22T14:36:40.201Z,102878.63
2023-01-22T14:39:08.202Z,102878.22
2023-01-22T14:41:37.287Z,102865.25
2023-01-22T14:44:05.525Z,102870.03
2023-01-22T14:46:33.287Z,102864.41
2023-01-22T14:49:01.902Z,102858.59
2023-01-22T14:51:29.669Z,102861.34
2023-01-22T14:53:58.270Z,102846.72
2023-01-22T14:56:26.210Z,102864.84
2023-01-22T14:58:55.308Z,102855.81
2023-01-22T15:01:24.030Z,102872.97
2023-01-22T15:03:52.355Z,102887.53
2023-01-22T15:06:20.123Z,102890.78
2023-01-22T15:08:47.858Z,102885.19
2023-01-22T15:11:15.642Z,102889.91
2023-01-22T15:13:43.389Z,102910.97
2023-01-22T15:16:13.056Z,102938.16
2023-01-22T15:18:40.866Z,102942.47
2023-01-22T15:21:09.106Z,102946.41
2023-01-22T15:23:36.859Z,102955.25
2023-01-22T15:26:09.501Z,102968.31
2023-01-22T15:28:37.878Z,102982.25
2023-01-22T15:31:08.011Z,102988.56
2023-01-22T15:33:38.141Z,102985.88
2023-01-22T15:36:06.811Z,102997.91
2023-01-22T15:38:34.935Z,103027.38
2023-01-22T15:41:04.280Z,103029.34
2023-01-22T15:43:32.002Z,103025.50
2023-01-22T15:45:59.913Z,103037.34
2023-01-22T15:48:27.711Z,103029.81
2023-01-22T15:51:07.319Z,103045.59
2023-01-22T15:53:35.144Z,103027.16
2023-01-22T15:56:03.205Z,102998.88
2023-01-22T15:58:32.150Z,102986.63
2023-01-22T16:00:59.994Z,102965.00
2023-01-22T16:03:28.197Z,102989.03
2023-01-22T16:06:07.712Z,103004.38
2023-01-22T16:08:36.709Z,102966.84
2023-01-22T16:11:04.857Z,102976.91
2023-01-22T16:13:32.552Z,102933.50
2023-01-22T16:16:01.313Z,102936.31
2023-01-22T16:18:29.315Z,103032.19
2023-01-22T16:21:01.689Z,103019.25
2023-01-22T16:23:30.498Z,102999.19
2023-01-22T16:25:58.287Z,102998.31
2023-01-22T16:28:26.100Z,102987.69
2023-01-22T16:30:54.061Z,102989.84
2023-01-22T16:33:24.709Z,102982.91
2023-01-22T16:36:01.161Z,102997.06
2023-01-22T16:38:29.291Z,102998.50
2023-01-22T16:41:06.489Z,102988.31
2023-01-22T16:43:34.633Z,102972.53
2023-01-22T16:46:02.393Z,102967.19
2023-01-22T16:48:30.104Z,102983.84
2023-01-22T16:50:57.878Z,102974.50
2023-01-22T16:53:27.024Z,103011.47
2023-01-22T16:55:54.710Z,102991.47
2023-01-22T16:58:22.454Z,102970.41
2023-01-22T17:00:50.221Z,102966.06
2023-01-22T17:03:17.953Z,102959.78
2023-01-22T17:05:48.751Z,102955.53
2023-01-22T17:08:16.478Z,102968.69
2023-01-22T17:10:45.572Z,102960.97
2023-01-22T17:13:13.630Z,102989.97
2023-01-22T17:15:42.161Z,102992.09
2023-01-22T17:18:10.295Z,102984.66
2023-01-22T17:20:38.351Z,102979.78
2023-01-22T17:23:06.394Z,102978.28
2023-01-22T17:25:34.150Z,102985.88
2023-01-22T17:28:03.640Z,102981.03
2023-01-22T17:30:31.337Z,103008.09
2023-01-22T17:32:59.290Z,103005.16
2023-01-22T17:35:27.035Z,102988.78
2023-01-22T17:37:54.777Z,103019.84
2023-01-22T17:40:22.492Z,103008.72
2023-01-22T17:42:50.219Z,102993.22
2023-01-22T17:45:19.417Z,103005.09
2023-01-22T17:47:47.347Z,102998.09
2023-01-22T17:50:15.138Z,103015.28
2023-01-22T17:52:42.874Z,103030.03
2023-01-22T17:55:11.340Z,103038.16
2023-01-22T17:57:41.370Z,103034.69
2023-01-22T18:00:10.623Z,103046.56
2023-01-22T18:02:39.926Z,103050.59
2023-01-22T18:05:10.388Z,103045.72
2023-01-22T18:07:38.292Z,103042.31
2023-01-22T18:10:06.612Z,103054.03
2023-01-22T18:12:34.345Z,103042.50
2023-01-22T18:15:02.123Z,103053.19
2023-01-22T18:17:29.902Z,103042.31
2023-01-22T18:19:58.983Z,103048.56
2023-01-22T18:22:26.710Z,103045.44
2023-01-22T18:24:54.452Z,103051.13
2023-01-22T18:27:22.199Z,103038.97
2023-01-22T18:29:49.928Z,103027.16
2023-01-22T18:32:17.723Z,103035.31
2023-01-22T18:34:45.471Z,103050.59
2023-01-22T18:37:14.555Z,103057.00
2023-01-22T18:39:42.294Z,103096.78
2023-01-22T18:42:10.023Z,103071.56
2023-01-22T18:44:39.835Z,103057.38
2023-01-22T18:47:11.141Z,103032.22
2023-01-22T18:49:39.139Z,103022.72
2023-01-22T18:52:06.867Z,103028.69
2023-01-22T18:54:35.975Z,103026.25
2023-01-22T18:57:03.696Z,103020.19
2023-01-22T18:59:31.409Z,103011.09
2023-01-22T19:02:00.019Z,103024.69
2023-01-22T19:04:29.015Z,103005.03
2023-01-22T19:06:57.281Z,103020.94
2023-01-22T19:09:26.914Z,103023.88
2023-01-22T19:11:56.487Z,103030.59
2023-01-22T19:14:24.283Z,103056.47
2023-01-22T19:16:53.338Z,103021.50
2023-01-22T19:19:21.817Z,102996.59
2023-01-22T19:21:53.718Z,103001.50
2023-01-22T19:24:25.041Z,103014.28
2023-01-22T19:26:54.739Z,102999.38
2023-01-22T19:29:25.394Z,103009.25
2023-01-22T19:31:54.256Z,103036.09
2023-01-22T19:34:24.770Z,103046.13
2023-01-22T19:36:54.112Z,103032.56
2023-01-22T19:39:22.567Z,103048.59
2023-01-22T19:41:50.429Z,103048.41
2023-01-22T19:44:18.489Z,103052.69
2023-01-22T19:46:47.839Z,103029.53
2023-01-22T19:49:15.694Z,103031.94
2023-01-22T19:51:43.460Z,103021.41
2023-01-22T19:54:11.694Z,103042.16
2023-01-22T19:56:42.117Z,103056.38
2023-01-22T19:59:12.958Z,103082.34
2023-01-22T20:01:40.790Z,103096.00
2023-01-22T20:04:13.857Z,103080.53
2023-01-22T20:06:41.578Z,103088.03
2023-01-22T20:09:10.626Z,103106.63
2023-01-22T20:11:39.016Z,103095.63
2023-01-22T20:14:06.757Z,103101.34
2023-01-22T20:16:34.635Z,103074.84
2023-01-22T20:19:02.380Z,103079.22
2023-01-22T20:21:31.488Z,103094.19
2023-01-22T20:23:59.280Z,103098.41
2023-01-22T20:26:27.015Z,103096.25
2023-01-22T20:28:54.731Z,103107.69
2023-01-22T20:31:24.209Z,103061.34
2023-01-22T20:33:53.383Z,103049.19
2023-01-22T20:36:22.705Z,103043.50
2023-01-22T20:38:54.140Z,103039.38
2023-01-22T20:41:22.946Z,103066.53
2023-01-22T20:43:51.317Z,103045.75
2023-01-22T20:46:21.935Z,103036.66
2023-01-22T20:48:50.388Z,103036.03
2023-01-22T20:51:19.884Z,103037.50
2023-01-22T20:53:49.947Z,103035.91
2023-01-22T20:56:21.029Z,103037.25
2023-01-22T20:58:48.952Z,103030.81
2023-01-22T21:01:19.283Z,103025.06
2023-01-22T21:03:48.596Z,103034.47
2023-01-22T21:06:17.567Z,103028.84
2023-01-22T21:08:49.673Z,103047.78
2023-01-22T21:11:20.711Z,103053.53
2023-01-22T21:13:49.097Z,103055.53
2023-01-22T21:16:18.912Z,103049.91
2023-01-22T21:18:46.939Z,103049.38
2023-01-22T21:21:18.538Z,103051.75
2023-01-22T21:23:48.214Z,103055.75
2023-01-22T21:26:19.262Z,103051.47
2023-01-22T21:28:49.291Z,103068.84
2023-01-22T21:31:19.330Z,103049.09
2023-01-22T21:33:48.624Z,103051.47
2023-01-22T21:36:18.493Z,103071.41
2023-01-22T21:38:47.709Z,103060.66
2023-01-22T21:41:17.588Z,103063.84
2023-01-22T21:44:06.053Z,103057.69
2023-01-22T21:46:35.860Z,103057.31
2023-01-22T21:49:16.221Z,103067.97
2023-01-22T21:51:46.030Z,103077.56
2023-01-22T21:54:15.168Z,103072.09
2023-01-22T21:56:43.113Z,103057.59
2023-01-22T21:59:12.577Z,103056.78
2023-01-22T22:01:40.734Z,103051.75
2023-01-22T22:04:09.847Z,103058.25
2023-01-22T22:06:38.567Z,103055.47
2023-01-22T22:09:09.129Z,103061.50
2023-01-22T22:11:36.866Z,103066.97
2023-01-22T22:14:05.691Z,103061.03
2023-01-22T22:16:34.947Z,103063.53
2023-01-22T22:19:02.700Z,103037.88
2023-01-22T22:21:30.507Z,103048.50
2023-01-22T22:23:58.993Z,103050.50
2023-01-22T22:26:27.240Z,103055.94
2023-01-22T22:28:55.336Z,103058.66
2023-01-22T22:31:23.160Z,103058.63
2023-01-22T22:33:54.020Z,103080.34
2023-01-22T22:36:23.766Z,103075.75
2023-01-22T22:38:51.932Z,103061.66
2023-01-22T22:41:22.097Z,103070.31
2023-01-22T22:43:51.978Z,103084.41
2023-01-22T22:46:22.191Z,103077.09
2023-01-22T22:48:52.478Z,103073.88
2023-01-22T22:51:23.592Z,103084.88
2023-01-22T22:53:54.707Z,103085.66
2023-01-22T22:56:22.982Z,103081.97
2023-01-22T22:58:50.712Z,103075.69
2023-01-22T23:01:19.763Z,103092.03
2023-01-22T23:03:47.967Z,103105.56
2023-01-22T23:06:19.283Z,103089.84
2023-01-22T23:08:52.120Z,103088.44
2023-01-22T23:11:21.557Z,103087.94
2023-01-22T23:13:50.292Z,103106.16
2023-01-22T23:16:20.353Z,103101.03
2023-01-22T23:18:49.721Z,103117.38
2023-01-22T23:21:21.783Z,103128.78
2023-01-22T23:23:49.792Z,103125.03
2023-01-22T23:26:22.883Z,103123.31
2023-01-22T23:28:52.091Z,103122.16
2023-01-22T23:31:19.971Z,103125.03
2023-01-22T23:33:47.804Z,103125.66
2023-01-22T23:36:18.241Z,103111.47
2023-01-22T23:38:46.531Z,103147.41
2023-01-22T23:41:17.631Z,103125.97
2023-01-22T23:43:46.046Z,103139.31
2023-01-22T23:46:16.178Z,103125.34
2023-01-22T23:48:44.219Z,103119.72
2023-01-22T23:51:14.234Z,103139.06
2023-01-22T23:53:45.338Z,103123.59
2023-01-22T23:56:14.340Z,103110.13
2023-01-22T23:58:42.520Z,103134.78
